Time;durP1;ratioP1;P1;durP2;ratioP2;P2;SDS_P1;SDS_P2;PMS_P1;PMS_P2;Temp;Humidity;BMP_temperature;BMP_pressure;BME280_temperature;BME280_humidity;BME280_pressure;Samples;Min_cycle;Max_cycle;Signal;HPM_P1;HPM_P2
2022/04/18 00:02:21;;;;;;;4.20;1.98;;;13.70;63.10;;;;;;5036610;28;20025;-76
2022/04/18 00:04:47;;;;;;;5.63;1.65;;;13.50;63.50;;;;;;5054403;28;20389;-78
2022/04/18 00:07:13;;;;;;;6.47;1.90;;;13.30;64.20;;;;;;5054332;28;20090;-78
2022/04/18 00:09:39;;;;;;;4.78;1.73;;;13.40;64.60;;;;;;5054228;28;20052;-78
2022/04/18 00:12:05;;;;;;;3.60;1.92;;;13.50;64.60;;;;;;5054209;28;20219;-76
2022/04/18 00:14:31;;;;;;;5.40;1.70;;;13.50;64.40;;;;;;5054437;28;20120;-78
2022/04/18 00:16:57;;;;;;;7.20;2.30;;;13.20;64.80;;;;;;5054367;28;20506;-78
2022/04/18 00:19:23;;;;;;;8.05;1.80;;;13.40;64.90;;;;;;5054372;28;20028;-78
2022/04/18 00:21:49;;;;;;;7.70;2.60;;;13.30;65.00;;;;;;5054029;28;20366;-78
2022/04/18 00:24:20;;;;;;;8.43;2.00;;;13.20;65.40;;;;;;5053986;28;20028;-78
2022/04/18 00:26:47;;;;;;;3.40;1.90;;;12.90;65.20;;;;;;5054083;28;20119;-79
2022/04/18 00:29:13;;;;;;;2.88;1.80;;;12.60;65.70;;;;;;5053487;28;20159;-78
2022/04/18 00:31:39;;;;;;;4.10;1.92;;;12.40;66.10;;;;;;5036323;28;20532;-77
2022/04/18 00:34:05;;;;;;;4.53;2.10;;;12.40;66.60;;;;;;5035986;28;20020;-77
2022/04/18 00:36:31;;;;;;;4.68;1.80;;;12.60;66.70;;;;;;5036161;28;20032;-78
2022/04/18 00:38:58;;;;;;;6.38;2.00;;;12.40;67.00;;;;;;5035755;28;20044;-78
2022/04/18 00:41:23;;;;;;;3.88;1.88;;;12.50;67.20;;;;;;5035907;28;20029;-77
2022/04/18 00:43:50;;;;;;;3.22;1.70;;;12.40;67.40;;;;;;5053523;28;20048;-77
2022/04/18 00:46:18;;;;;;;2.40;1.85;;;12.30;68.20;;;;;;5053884;28;20048;-77
2022/04/18 00:48:44;;;;;;;5.22;2.03;;;11.90;69.50;;;;;;5053504;28;20028;-78
2022/04/18 00:51:13;;;;;;;11.43;2.08;;;11.70;70.90;;;;;;5035903;28;20041;-78
2022/04/18 00:53:40;;;;;;;4.97;2.03;;;11.80;71.40;;;;;;5053112;28;20048;-77
2022/04/18 00:56:08;;;;;;;2.63;1.63;;;11.60;70.90;;;;;;5035683;28;20048;-78
2022/04/18 00:58:35;;;;;;;6.00;1.95;;;11.70;71.10;;;;;;5035496;28;20025;-78
2022/04/18 01:01:02;;;;;;;5.70;2.35;;;12.00;70.80;;;;;;5053578;28;20021;-78
2022/04/18 01:03:30;;;;;;;3.63;1.98;;;12.30;70.10;;;;;;5035161;28;20386;-72
2022/04/18 01:06:00;;;;;;;6.30;2.42;;;12.30;69.60;;;;;;5032821;28;20386;-77
2022/04/18 01:08:28;;;;;;;2.70;1.77;;;12.30;70.00;;;;;;5031875;28;20033;-78
2022/04/18 01:10:54;;;;;;;5.63;2.28;;;12.30;70.00;;;;;;5015590;28;20029;-78
2022/04/18 01:13:24;;;;;;;5.13;2.33;;;12.10;70.00;;;;;;5031987;28;20025;-77
2022/04/18 01:16:05;;;;;;;6.78;2.08;;;12.20;70.20;;;;;;5015842;28;20025;-77
2022/04/18 01:18:45;;;;;;;4.55;2.60;;;12.10;70.00;;;;;;5015386;28;20021;-78
2022/04/18 01:21:36;;;;;;;3.17;1.98;;;11.90;70.80;;;;;;5015386;28;20509;-77
2022/04/18 01:29:56;;;;;;;7.93;2.50;;;11.70;72.00;;;;;;5032952;28;20079;-78
2022/04/18 01:32:22;;;;;;;8.18;2.83;;;11.50;73.00;;;;;;5015563;28;20021;-76
2022/04/18 01:34:48;;;;;;;4.43;2.15;;;11.50;72.70;;;;;;5015210;28;20084;-77
2022/04/18 01:37:14;;;;;;;3.50;2.22;;;11.60;72.90;;;;;;5015128;28;20120;-77
2022/04/18 01:39:40;;;;;;;4.70;2.30;;;11.50;72.70;;;;;;5030659;28;20158;-75
2022/04/18 01:42:06;;;;;;;4.78;2.60;;;11.50;73.00;;;;;;5032808;28;20068;-75
2022/04/18 01:44:32;;;;;;;3.65;2.10;;;11.40;73.50;;;;;;5015090;28;20083;-76
2022/04/18 01:46:57;;;;;;;6.47;2.50;;;10.70;74.70;;;;;;5034704;28;20478;-76
2022/04/18 01:49:24;;;;;;;6.72;2.42;;;10.20;77.40;;;;;;5034716;28;20072;-78
2022/04/18 01:51:49;;;;;;;4.50;2.40;;;10.50;77.80;;;;;;5034725;28;20051;-77
2022/04/18 01:54:15;;;;;;;5.13;2.67;;;10.70;76.90;;;;;;5034825;28;20021;-78
2022/04/18 01:56:42;;;;;;;3.95;2.10;;;10.90;76.20;;;;;;5034732;28;20029;-78
2022/04/18 01:59:07;;;;;;;8.02;2.30;;;10.90;75.90;;;;;;5034761;28;20063;-78
2022/04/18 02:01:33;;;;;;;6.68;2.58;;;10.90;75.70;;;;;;5034873;28;20061;-78
2022/04/18 02:04:00;;;;;;;3.97;2.33;;;10.80;76.00;;;;;;5034192;28;20470;-77
2022/04/18 02:06:25;;;;;;;4.72;2.58;;;10.60;75.90;;;;;;5034592;28;20147;-76
2022/04/18 02:08:51;;;;;;;3.80;2.50;;;10.30;76.60;;;;;;5034687;28;20037;-77
2022/04/18 02:11:21;;;;;;;5.13;3.15;;;10.40;77.00;;;;;;5034678;28;20489;-77
2022/04/18 02:13:46;;;;;;;7.93;2.63;;;10.30;77.30;;;;;;5034908;28;20028;-77
2022/04/18 02:16:13;;;;;;;4.53;2.20;;;10.40;76.90;;;;;;5034808;28;20115;-78
2022/04/18 02:18:42;;;;;;;4.80;3.00;;;10.50;75.60;;;;;;5034449;28;20029;-78
2022/04/18 02:21:11;;;;;;;2.63;2.28;;;10.50;75.20;;;;;;5034653;28;20033;-78
2022/04/18 02:23:42;;;;;;;3.13;2.17;;;10.50;75.40;;;;;;5034636;28;20182;-78
2022/04/18 02:26:08;;;;;;;2.75;2.10;;;10.50;75.30;;;;;;5034449;28;20032;-78
2022/04/18 02:28:35;;;;;;;3.83;2.47;;;10.30;75.30;;;;;;5034597;28;20021;-79
2022/04/18 02:31:08;;;;;;;4.25;2.42;;;10.30;75.70;;;;;;5034495;28;20048;-78
2022/04/18 02:33:33;;;;;;;4.20;2.22;;;10.40;76.00;;;;;;5017813;28;20021;-78
2022/04/18 02:36:02;;;;;;;3.58;2.08;;;10.40;75.70;;;;;;5034532;28;20025;-78
2022/04/18 02:38:29;;;;;;;4.43;2.28;;;10.40;76.00;;;;;;5052322;28;20063;-78
2022/04/18 02:40:55;;;;;;;4.50;2.13;;;10.50;75.80;;;;;;5052244;28;20021;-77
2022/04/18 02:43:22;;;;;;;2.22;1.85;;;10.60;75.20;;;;;;5034454;28;20071;-76
2022/04/18 02:45:54;;;;;;;4.72;2.70;;;10.30;75.40;;;;;;5034402;28;20033;-73
2022/04/18 02:48:32;;;;;;;3.25;1.90;;;10.20;75.50;;;;;;5033951;28;20028;-77
2022/04/18 02:51:00;;;;;;;3.80;2.20;;;10.40;76.30;;;;;;5035362;28;20454;-76
2022/04/18 02:53:29;;;;;;;3.25;2.00;;;10.40;74.80;;;;;;5037937;28;20025;-75
2022/04/18 02:55:59;;;;;;;2.65;1.90;;;10.40;75.00;;;;;;5037970;28;20025;-77
2022/04/18 02:58:25;;;;;;;3.60;1.98;;;10.50;75.30;;;;;;5038052;28;20436;-73
2022/04/18 03:00:52;;;;;;;7.70;2.10;;;10.50;75.10;;;;;;5038039;28;20029;-76
2022/04/18 03:03:17;;;;;;;4.40;2.00;;;10.30;74.60;;;;;;5037434;28;20474;-74
2022/04/18 03:05:44;;;;;;;7.13;2.53;;;10.10;74.80;;;;;;5037413;28;20112;-77
2022/04/18 03:08:10;;;;;;;3.90;2.22;;;10.20;75.50;;;;;;5055778;28;20224;-77
2022/04/18 03:13:27;;;;;;;3.45;2.05;;;10.10;75.10;;;;;;5055665;28;20040;-77
2022/04/18 03:15:54;;;;;;;6.15;1.95;;;10.10;75.50;;;;;;5037662;28;20447;-76
2022/04/18 03:18:20;;;;;;;3.03;1.58;;;10.10;75.10;;;;;;5021134;28;20028;-74
2022/04/18 03:20:46;;;;;;;3.65;2.30;;;10.10;75.30;;;;;;5037390;28;20020;-76
2022/04/18 03:23:12;;;;;;;3.55;2.00;;;10.10;75.70;;;;;;5037534;28;20076;-77
2022/04/18 03:26:04;;;;;;;3.83;1.85;;;10.00;75.70;;;;;;5055121;28;20029;-75
2022/04/18 03:28:41;;;;;;;3.08;1.83;;;9.90;75.20;;;;;;5037317;28;20029;-78
2022/04/18 03:31:06;;;;;;;2.83;1.80;;;10.00;75.50;;;;;;5036854;28;20037;-77
2022/04/18 03:33:32;;;;;;;2.58;1.83;;;10.00;75.50;;;;;;5037147;28;20025;-76
2022/04/18 03:41:28;;;;;;;4.53;1.98;;;10.00;75.80;;;;;;5037072;28;20037;-76
2022/04/18 03:43:54;;;;;;;4.57;1.80;;;9.80;75.60;;;;;;5036983;28;20028;-77
2022/04/18 03:46:20;;;;;;;3.38;2.17;;;9.90;76.30;;;;;;5036810;28;20035;-76
2022/04/18 03:48:46;;;;;;;2.78;1.58;;;9.70;77.40;;;;;;5036759;28;20021;-77
2022/04/18 03:51:12;;;;;;;6.18;2.13;;;9.20;81.00;;;;;;5054788;28;20040;-77
2022/04/18 03:53:38;;;;;;;5.28;1.80;;;8.90;83.90;;;;;;5036891;28;20024;-76
2022/04/18 03:56:05;;;;;;;4.22;2.10;;;9.30;83.80;;;;;;5036867;28;20385;-76
2022/04/18 03:58:49;;;;;;;6.18;1.77;;;9.50;81.80;;;;;;5054839;28;20051;-78
2022/04/18 04:01:16;;;;;;;2.85;1.70;;;9.60;81.10;;;;;;5036424;28;20395;-78
2022/04/18 04:03:42;;;;;;;3.63;1.88;;;9.20;83.10;;;;;;5036929;28;20082;-77
2022/04/18 04:06:08;;;;;;;7.25;2.03;;;9.00;85.40;;;;;;5036595;28;20029;-77
2022/04/18 04:08:34;;;;;;;3.25;1.98;;;9.10;85.80;;;;;;5036631;28;20035;-77
2022/04/18 04:11:04;;;;;;;3.15;2.00;;;9.30;86.20;;;;;;5054440;28;20025;-77
2022/04/18 04:13:32;;;;;;;2.65;1.90;;;9.30;84.30;;;;;;5036555;28;20025;-77
2022/04/18 04:16:19;;;;;;;4.53;2.25;;;9.40;84.30;;;;;;5036463;28;20032;-77
2022/04/18 04:18:47;;;;;;;2.55;1.90;;;9.70;83.80;;;;;;5036483;28;20043;-77
2022/04/18 04:21:13;;;;;;;3.45;1.95;;;9.70;82.70;;;;;;5036506;28;20032;-78
2022/04/18 04:23:40;;;;;;;2.45;1.95;;;9.70;82.70;;;;;;5036210;28;20116;-78
2022/04/18 04:26:09;;;;;;;3.65;1.75;;;9.60;83.20;;;;;;5036439;28;20035;-78
2022/04/18 04:28:48;;;;;;;4.47;2.33;;;9.40;84.20;;;;;;5036058;28;20025;-78
2022/04/18 04:31:22;;;;;;;4.20;2.38;;;9.40;84.40;;;;;;5036252;28;20036;-78
2022/04/18 04:33:48;;;;;;;4.43;2.28;;;9.30;84.40;;;;;;5053994;28;20017;-78
2022/04/18 04:36:15;;;;;;;5.65;1.90;;;9.20;86.10;;;;;;5035928;28;20397;-78
2022/04/18 04:38:43;;;;;;;3.63;1.95;;;9.10;87.70;;;;;;5035905;28;20020;-78
2022/04/18 04:41:16;;;;;;;2.53;2.13;;;9.00;86.70;;;;;;5036180;28;20029;-78
2022/04/18 04:43:47;;;;;;;6.28;2.75;;;8.90;87.40;;;;;;5035610;28;20043;-78
2022/04/18 04:46:17;;;;;;;10.10;2.40;;;9.10;88.00;;;;;;5036097;28;20029;-78
2022/04/18 04:48:55;;;;;;;3.30;2.22;;;9.40;87.50;;;;;;5035676;28;20025;-78
2022/04/18 04:51:21;;;;;;;6.95;2.38;;;9.50;86.10;;;;;;5035862;28;20543;-78
2022/04/18 04:53:49;;;;;;;4.15;2.30;;;9.50;85.90;;;;;;5035559;28;20452;-78
2022/04/18 04:56:25;;;;;;;7.93;2.47;;;9.70;85.80;;;;;;5035941;28;20383;-78
2022/04/18 04:58:53;;;;;;;3.13;1.90;;;9.70;85.10;;;;;;5035336;28;20025;-78
2022/04/18 05:01:21;;;;;;;5.25;2.30;;;9.50;85.70;;;;;;5053644;28;20484;-78
2022/04/18 05:04:19;;;;;;;4.53;2.25;;;9.50;86.80;;;;;;5030315;28;20030;-77
2022/04/18 05:06:46;;;;;;;3.78;2.45;;;9.50;84.40;;;;;;5015712;28;20029;-77
2022/04/18 05:09:21;;;;;;;5.55;2.35;;;9.50;84.30;;;;;;5015656;28;20025;-77
2022/04/18 05:11:48;;;;;;;4.22;2.30;;;9.50;82.10;;;;;;5015883;28;20026;-77
2022/04/18 05:14:15;;;;;;;4.90;2.40;;;9.80;83.50;;;;;;5015102;28;20104;-78
2022/04/18 05:16:50;;;;;;;4.78;2.65;;;10.00;82.90;;;;;;5033585;28;20033;-78
2022/04/18 05:19:33;;;;;;;7.10;2.33;;;9.90;82.30;;;;;;5015351;28;20029;-78
2022/04/18 05:22:28;;;;;;;7.20;2.00;;;9.50;85.50;;;;;;5023869;28;20029;-78
2022/04/18 05:24:55;;;;;;;5.70;1.77;;;9.70;87.30;;;;;;4999163;28;20126;-78
2022/04/18 05:27:33;;;;;;;2.95;1.92;;;10.00;84.90;;;;;;5015368;28;20025;-78
2022/04/18 05:29:59;;;;;;;6.80;2.45;;;10.20;85.50;;;;;;5015243;28;20095;-77
2022/04/18 05:32:25;;;;;;;2.97;2.28;;;10.50;85.00;;;;;;5015614;28;20083;-78
2022/04/18 05:35:00;;;;;;;3.83;2.38;;;10.60;82.20;;;;;;5032898;28;20124;-78
2022/04/18 05:37:27;;;;;;;3.05;2.13;;;10.60;82.60;;;;;;5015484;28;20025;-78
2022/04/18 05:40:02;;;;;;;3.67;2.47;;;10.70;82.20;;;;;;5015176;28;20038;-78
2022/04/18 05:42:32;;;;;;;3.58;2.20;;;11.00;83.10;;;;;;5015005;28;20448;-78
2022/04/18 05:45:07;;;;;;;5.05;2.42;;;11.00;80.70;;;;;;5015063;28;20048;-78
2022/04/18 05:47:33;;;;;;;3.75;2.30;;;10.80;78.90;;;;;;5039729;28;20481;-77
2022/04/18 05:50:02;;;;;;;6.70;2.92;;;10.90;77.60;;;;;;5034730;28;20040;-77
2022/04/18 05:52:30;;;;;;;7.60;2.20;;;10.90;76.70;;;;;;5034997;28;20029;-74
2022/04/18 05:55:05;;;;;;;4.43;2.40;;;11.00;76.50;;;;;;5034674;28;20036;-76
2022/04/18 05:57:31;;;;;;;6.05;2.70;;;11.00;77.10;;;;;;5034685;28;20037;-77
2022/04/18 06:00:02;;;;;;;6.68;2.58;;;10.80;77.40;;;;;;5052566;28;20029;-78
2022/04/18 06:02:36;;;;;;;5.05;2.58;;;10.80;78.00;;;;;;5052711;28;20061;-77
2022/04/18 06:05:04;;;;;;;6.78;2.78;;;10.80;78.70;;;;;;5052706;28;20032;-76
2022/04/18 06:07:55;;;;;;;12.27;3.00;;;11.10;78.40;;;;;;5034608;28;20029;-77
2022/04/18 06:10:46;;;;;;;9.38;2.92;;;11.00;77.50;;;;;;5034270;28;20060;-75
2022/04/18 06:13:35;;;;;;;7.47;2.78;;;11.00;79.60;;;;;;5023865;28;20036;-77
2022/04/18 06:16:03;;;;;;;6.75;2.78;;;11.20;80.00;;;;;;5034686;28;20036;-77
2022/04/18 06:18:29;;;;;;;6.50;2.92;;;11.20;78.90;;;;;;5034745;28;20071;-76
2022/04/18 06:20:59;;;;;;;10.75;3.40;;;11.30;78.70;;;;;;5034368;28;20033;-77
2022/04/18 06:23:25;;;;;;;6.43;2.65;;;11.30;78.20;;;;;;5052625;28;20056;-77
2022/04/18 06:26:10;;;;;;;4.97;2.72;;;11.40;78.10;;;;;;5035694;28;20025;-77
2022/04/18 06:28:36;;;;;;;10.82;2.97;;;11.50;78.60;;;;;;5038569;28;20052;-77
2022/04/18 06:31:02;;;;;;;10.02;3.10;;;11.70;79.50;;;;;;5056212;28;20481;-77
2022/04/18 06:33:39;;;;;;;6.45;2.95;;;11.70;77.30;;;;;;5038481;28;20108;-76
2022/04/18 06:36:07;;;;;;;5.72;2.78;;;11.70;76.80;;;;;;5022022;28;20021;-77
2022/04/18 06:38:39;;;;;;;7.18;3.00;;;11.90;76.40;;;;;;5038405;28;20384;-76
2022/04/18 06:41:09;;;;;;;5.85;2.72;;;12.00;76.10;;;;;;5037842;28;20024;-78
2022/04/18 06:43:36;;;;;;;11.13;3.00;;;12.20;75.40;;;;;;5038256;28;20055;-78
2022/04/18 06:46:07;;;;;;;21.20;4.80;;;12.30;74.80;;;;;;5038202;28;20028;-76
2022/04/18 06:48:33;;;;;;;8.40;2.78;;;12.50;73.30;;;;;;5038004;28;20112;-77
2022/04/18 06:51:17;;;;;;;10.85;2.70;;;12.50;73.60;;;;;;5056241;28;20044;-77
2022/04/18 06:54:02;;;;;;;7.68;2.58;;;12.50;72.10;;;;;;5037765;28;20435;-76
2022/04/18 06:57:01;;;;;;;7.28;2.40;;;12.50;70.90;;;;;;5037871;28;20397;-76
2022/04/18 06:59:38;;;;;;;7.97;2.45;;;12.80;71.30;;;;;;5023020;28;20025;-77
2022/04/18 07:02:05;;;;;;;8.52;3.38;;;13.10;71.00;;;;;;5037636;28;20055;-78
2022/04/18 07:04:32;;;;;;;6.03;2.42;;;13.10;71.60;;;;;;5037576;28;20108;-77
2022/04/18 07:06:57;;;;;;;5.57;2.67;;;13.20;70.20;;;;;;5037430;28;20120;-76
2022/04/18 07:09:23;;;;;;;6.40;2.75;;;13.10;69.10;;;;;;5037463;28;20025;-76
2022/04/18 07:11:58;;;;;;;3.40;2.17;;;12.90;69.90;;;;;;5037579;28;20071;-78
2022/04/18 07:14:25;;;;;;;5.13;2.50;;;13.10;70.30;;;;;;5037669;28;20021;-74
2022/04/18 07:16:53;;;;;;;4.80;2.63;;;13.30;70.50;;;;;;5037318;28;20030;-78
2022/04/18 07:19:23;;;;;;;5.03;2.38;;;13.10;69.50;;;;;;5037663;28;20035;-75
2022/04/18 07:21:50;;;;;;;6.63;2.47;;;13.20;69.10;;;;;;5037392;28;20036;-78
2022/04/18 07:24:17;;;;;;;6.13;2.28;;;13.10;67.70;;;;;;5037371;28;20492;-78
2022/04/18 07:26:45;;;;;;;8.63;2.85;;;13.10;68.20;;;;;;5037041;28;20025;-76
2022/04/18 07:29:11;;;;;;;9.15;2.50;;;13.10;67.40;;;;;;5055195;28;20048;-75
2022/04/18 07:31:38;;;;;;;5.90;2.65;;;13.10;68.30;;;;;;5037308;28;20025;-71
2022/04/18 07:34:04;;;;;;;10.15;3.00;;;12.90;68.10;;;;;;5055331;28;20040;-72
2022/04/18 07:36:31;;;;;;;7.03;2.40;;;12.90;68.40;;;;;;5055720;28;20029;-77
2022/04/18 07:38:57;;;;;;;13.93;2.75;;;13.00;68.70;;;;;;5036819;28;20040;-77
2022/04/18 07:41:33;;;;;;;7.13;3.15;;;13.10;69.80;;;;;;5037217;28;20488;-76
2022/04/18 07:44:01;;;;;;;14.50;3.50;;;13.10;69.30;;;;;;5037081;28;20025;-77
2022/04/18 07:46:29;;;;;;;6.95;2.80;;;13.20;69.40;;;;;;5037460;28;20028;-75
2022/04/18 07:48:56;;;;;;;7.57;2.97;;;13.10;69.60;;;;;;5036862;28;20021;-77
2022/04/18 07:51:42;;;;;;;8.48;2.72;;;13.10;70.20;;;;;;5054893;28;20112;-78
2022/04/18 07:54:28;;;;;;;13.40;3.03;;;13.10;70.50;;;;;;5025994;28;20040;-78
2022/04/18 07:56:55;;;;;;;6.10;2.60;;;13.40;70.00;;;;;;5036826;28;20025;-78
2022/04/18 07:59:32;;;;;;;6.03;2.55;;;13.50;70.90;;;;;;5036725;28;20052;-77
2022/04/18 08:01:58;;;;;;;7.47;2.78;;;13.40;70.00;;;;;;5036450;28;20021;-78
2022/04/18 08:04:56;;;;;;;7.50;2.50;;;13.30;70.50;;;;;;5001264;28;20037;-78
2022/04/18 08:07:32;;;;;;;7.00;2.22;;;13.40;71.10;;;;;;5032983;28;20037;-76
2022/04/18 08:09:58;;;;;;;4.22;2.50;;;13.60;69.90;;;;;;5016922;28;20482;-76
2022/04/18 08:12:24;;;;;;;4.07;2.20;;;13.70;69.10;;;;;;5016800;28;20516;-78
2022/04/18 08:15:19;;;;;;;3.72;1.98;;;13.60;69.40;;;;;;5021246;28;20482;-78
2022/04/18 08:17:44;;;;;;;3.03;1.85;;;13.50;69.70;;;;;;5035008;28;20040;-78
2022/04/18 08:20:11;;;;;;;3.38;2.28;;;13.60;69.30;;;;;;5016527;28;20034;-78
2022/04/18 08:22:37;;;;;;;6.85;2.35;;;13.60;70.00;;;;;;5032646;28;20359;-78
2022/04/18 08:25:37;;;;;;;6.10;2.20;;;13.60;69.90;;;;;;5034193;28;20135;-77
2022/04/18 08:28:23;;;;;;;5.25;2.50;;;13.80;70.00;;;;;;5033655;28;20072;-77
2022/04/18 08:30:49;;;;;;;3.67;2.35;;;14.00;69.80;;;;;;5033022;28;20482;-78
2022/04/18 08:33:40;;;;;;;7.63;1.90;;;14.20;69.20;;;;;;5015945;28;20021;-76
2022/04/18 08:36:06;;;;;;;6.50;2.50;;;14.20;68.30;;;;;;5032417;28;20087;-77
2022/04/18 08:38:32;;;;;;;15.30;2.42;;;14.20;68.60;;;;;;5016383;28;20032;-77
2022/04/18 08:41:38;;;;;;;3.92;2.28;;;14.20;69.10;;;;;;5016510;28;20424;-77
2022/04/18 08:44:08;;;;;;;8.63;2.05;;;14.40;69.20;;;;;;5016136;28;20021;-78
2022/04/18 08:46:34;;;;;;;8.10;2.53;;;14.80;67.90;;;;;;5033391;28;20108;-76
2022/04/18 08:54:33;;;;;;;4.88;2.60;;;15.10;67.10;;;;;;5035627;28;20052;-78
2022/04/18 08:56:59;;;;;;;2.55;2.00;;;15.30;66.80;;;;;;5035686;28;20111;-78
2022/04/18 08:59:26;;;;;;;3.58;2.10;;;15.10;66.20;;;;;;5035729;28;20123;-78
2022/04/18 09:01:52;;;;;;;5.05;1.70;;;15.10;66.00;;;;;;5036322;28;20014;-78
2022/04/18 09:04:45;;;;;;;9.07;2.55;;;15.00;65.00;;;;;;5017238;28;20120;-80
2022/04/18 09:07:12;;;;;;;4.07;2.13;;;15.10;65.90;;;;;;5034087;28;20041;-78
2022/04/18 09:09:42;;;;;;;6.00;2.35;;;15.40;65.50;;;;;;5032186;28;20037;-79
2022/04/18 09:12:22;;;;;;;4.03;2.25;;;15.80;66.80;;;;;;5016463;28;20026;-77
2022/04/18 09:15:36;;;;;;;3.85;2.47;;;16.00;65.40;;;;;;5032219;28;20029;-78
2022/04/18 09:18:17;;;;;;;5.55;2.55;;;16.20;66.10;;;;;;5015693;28;20087;-77
2022/04/18 09:21:05;;;;;;;5.22;2.20;;;16.50;64.80;;;;;;5032377;28;20553;-78
2022/04/18 09:23:35;;;;;;;4.43;2.25;;;16.30;63.60;;;;;;5031855;28;20112;-78
2022/04/18 09:26:21;;;;;;;4.10;1.85;;;16.40;64.90;;;;;;5032355;28;20041;-77
2022/04/18 09:28:47;;;;;;;4.40;3.05;;;16.60;64.90;;;;;;5015646;28;20059;-76
2022/04/18 09:31:24;;;;;;;6.80;2.33;;;16.60;65.00;;;;;;5015208;28;20510;-78
2022/04/18 09:33:56;;;;;;;4.47;2.40;;;16.80;62.90;;;;;;5032720;28;20084;-78
2022/04/18 09:36:23;;;;;;;6.53;2.08;;;16.90;63.60;;;;;;5015418;28;20060;-78
2022/04/18 09:38:52;;;;;;;3.75;2.40;;;17.00;63.70;;;;;;5015233;28;20029;-78
2022/04/18 09:41:29;;;;;;;4.28;2.15;;;17.30;63.30;;;;;;5033160;28;20404;-78
2022/04/18 09:43:58;;;;;;;4.78;1.90;;;17.40;61.40;;;;;;5031457;28;20054;-78
2022/04/18 09:46:29;;;;;;;3.00;2.20;;;17.50;61.20;;;;;;5015301;28;20084;-79
2022/04/18 09:49:16;;;;;;;4.00;2.03;;;17.40;60.80;;;;;;5031287;28;20026;-78
2022/04/18 09:51:50;;;;;;;3.92;2.13;;;17.10;61.40;;;;;;4999755;28;20034;-75
2022/04/18 09:54:20;;;;;;;4.60;2.35;;;17.30;61.10;;;;;;5015118;28;20021;-75
2022/04/18 09:56:50;;;;;;;8.82;2.10;;;17.40;60.60;;;;;;5014930;28;20539;-77
2022/04/18 09:59:17;;;;;;;6.90;1.90;;;17.70;61.20;;;;;;5032686;28;20041;-78
2022/04/18 10:01:44;;;;;;;2.65;1.73;;;18.20;60.30;;;;;;5035170;28;20040;-75
2022/04/18 10:04:11;;;;;;;6.00;1.90;;;18.30;59.40;;;;;;5054421;28;20475;-77
2022/04/18 10:06:40;;;;;;;4.63;2.00;;;18.00;59.10;;;;;;5038735;28;20033;-78
2022/04/18 10:09:06;;;;;;;2.47;1.70;;;18.30;59.00;;;;;;5056812;28;20037;-75
2022/04/18 10:11:32;;;;;;;2.90;1.73;;;18.10;58.80;;;;;;5038994;28;20087;-78
2022/04/18 10:13:58;;;;;;;3.00;1.80;;;18.10;57.80;;;;;;5056738;28;20029;-77
2022/04/18 10:16:24;;;;;;;3.10;2.05;;;18.20;58.90;;;;;;5038605;28;20389;-77
2022/04/18 10:18:59;;;;;;;4.60;1.85;;;18.30;59.80;;;;;;5038489;28;20381;-78
2022/04/18 10:21:32;;;;;;;3.35;1.92;;;18.60;57.70;;;;;;5056221;28;20032;-78
2022/04/18 10:24:03;;;;;;;6.72;2.22;;;18.50;58.00;;;;;;5056450;28;20024;-78
2022/04/18 10:26:49;;;;;;;3.50;2.05;;;18.60;57.50;;;;;;5056523;28;20029;-79
2022/04/18 10:29:38;;;;;;;2.90;2.00;;;18.70;57.80;;;;;;5056284;28;20076;-79
2022/04/18 10:32:07;;;;;;;8.15;2.33;;;18.40;58.30;;;;;;5055984;28;20036;-79
2022/04/18 10:34:34;;;;;;;4.53;2.00;;;18.20;58.00;;;;;;5056023;28;20017;-76
2022/04/18 10:37:02;;;;;;;4.50;1.77;;;18.70;56.40;;;;;;5056226;28;20075;-78
2022/04/18 10:39:36;;;;;;;3.03;1.73;;;18.70;57.40;;;;;;5056174;28;20434;-76
2022/04/18 10:42:20;;;;;;;4.65;2.00;;;19.30;58.90;;;;;;5055936;28;20025;-74
2022/04/18 10:44:58;;;;;;;3.67;1.60;;;20.10;58.50;;;;;;5056115;28;20095;-76
2022/04/18 10:47:24;;;;;;;5.00;1.77;;;20.00;55.70;;;;;;5055571;28;20029;-75
2022/04/18 10:50:18;;;;;;;8.43;1.92;;;19.70;53.50;;;;;;5055993;28;20741;-77
2022/04/18 10:53:07;;;;;;;2.17;1.52;;;19.60;55.10;;;;;;5055846;28;20389;-75
2022/04/18 10:55:32;;;;;;;7.38;2.00;;;19.80;56.60;;;;;;5055761;28;20140;-76
2022/04/18 10:58:15;;;;;;;3.80;1.90;;;19.60;55.10;;;;;;5055787;28;20446;-76
2022/04/18 11:00:51;;;;;;;5.50;1.80;;;20.40;56.30;;;;;;5055142;28;20063;-78
2022/04/18 11:03:35;;;;;;;3.53;2.25;;;20.80;54.30;;;;;;5055577;28;20040;-77
2022/04/18 11:06:32;;;;;;;3.92;2.13;;;21.00;55.70;;;;;;5055289;28;20091;-74
2022/04/18 11:09:06;;;;;;;2.28;2.08;;;21.20;55.30;;;;;;5032846;28;20068;-78
2022/04/18 11:11:49;;;;;;;2.72;1.73;;;21.40;54.00;;;;;;5055021;28;20072;-77
2022/04/18 11:14:16;;;;;;;3.95;2.28;;;21.70;54.20;;;;;;5055476;28;20036;-74
2022/04/18 11:16:44;;;;;;;2.70;1.70;;;21.10;54.30;;;;;;5055032;28;20043;-77
2022/04/18 11:19:18;;;;;;;3.53;1.90;;;21.00;53.60;;;;;;5055403;28;20033;-77
2022/04/18 11:22:00;;;;;;;7.15;2.22;;;20.60;53.30;;;;;;5055336;28;20029;-77
2022/04/18 11:24:46;;;;;;;;;;;20.90;53.30;;;;;;5055896;28;20087;-78
2022/04/18 11:27:20;;;;;;;2.75;1.75;;;20.90;54.00;;;;;;5055073;28;19935;-71
2022/04/18 11:29:53;;;;;;;7.72;1.85;;;21.20;54.70;;;;;;5054889;28;20036;-73
2022/04/18 11:32:21;;;;;;;3.22;1.70;;;21.70;55.00;;;;;;5055070;28;20067;-77
2022/04/18 11:34:50;;;;;;;3.97;2.20;;;21.70;55.60;;;;;;5055379;28;20029;-77
2022/04/18 11:37:26;;;;;;;3.13;1.80;;;22.60;54.00;;;;;;5054911;28;20032;-79
2022/04/18 11:39:57;;;;;;;6.68;1.95;;;23.00;52.90;;;;;;5037095;28;20133;-77
2022/04/18 11:42:25;;;;;;;2.15;1.52;;;22.50;50.00;;;;;;5054895;28;20064;-78
2022/04/18 11:44:53;;;;;;;6.15;1.60;;;22.80;52.10;;;;;;5054643;28;20029;-77
2022/04/18 11:47:23;;;;;;;2.92;1.67;;;23.20;49.70;;;;;;5054449;28;20029;-76
2022/04/18 11:50:00;;;;;;;2.75;1.75;;;23.30;50.20;;;;;;5054900;28;20040;-78
2022/04/18 11:52:28;;;;;;;2.63;1.55;;;23.40;51.90;;;;;;5054451;28;20070;-80
2022/04/18 11:55:07;;;;;;;2.67;1.42;;;24.00;48.70;;;;;;5054705;28;20090;-74
2022/04/18 11:57:38;;;;;;;4.25;1.63;;;24.00;50.60;;;;;;5054766;28;20028;-80
2022/04/18 12:08:32;;;;;;;2.83;1.60;;;24.20;50.80;;;;;;5054399;28;20037;-81
2022/04/18 12:10:57;;;;;;;3.67;1.60;;;24.60;48.80;;;;;;5054343;28;20124;-79
2022/04/18 12:13:23;;;;;;;3.63;1.40;;;24.40;48.80;;;;;;5053928;28;20100;-81
2022/04/18 12:15:49;;;;;;;6.00;1.70;;;24.20;48.70;;;;;;5036626;28;20389;-82
2022/04/18 12:18:17;;;;;;;2.75;1.30;;;25.00;49.60;;;;;;5036270;28;20055;-82
2022/04/18 12:20:44;;;;;;;1.45;1.10;;;25.30;48.90;;;;;;5054264;28;20029;-81
2022/04/18 12:23:16;;;;;;;1.60;1.27;;;25.60;49.10;;;;;;5053313;28;20029;-82
2022/04/18 12:25:47;;;;;;;4.07;1.50;;;26.10;47.90;;;;;;5054379;28;20511;-81
2022/04/18 12:28:14;;;;;;;2.15;1.42;;;25.70;45.60;;;;;;5053810;28;20048;-81
2022/04/18 12:30:40;;;;;;;2.97;1.20;;;25.70;47.40;;;;;;5053993;28;20041;-81
2022/04/18 12:33:12;;;;;;;2.47;1.60;;;25.60;45.40;;;;;;5053964;28;20114;-82
2022/04/18 12:35:43;;;;;;;3.47;1.27;;;26.20;45.70;;;;;;5054301;28;20029;-81
2022/04/18 12:38:12;;;;;;;1.85;1.15;;;25.60;44.30;;;;;;5053850;28;20029;-81
2022/04/18 12:40:40;;;;;;;2.40;1.50;;;25.90;45.70;;;;;;5053889;28;20032;-81
2022/04/18 12:43:17;;;;;;;6.05;1.98;;;26.00;48.10;;;;;;5053626;28;20017;-82
2022/04/18 12:45:56;;;;;;;9.75;1.70;;;26.00;46.70;;;;;;5053769;28;20067;-81
2022/04/18 12:48:22;;;;;;;3.10;1.48;;;27.50;48.90;;;;;;5053582;28;20032;-81
2022/04/18 12:50:49;;;;;;;1.92;1.27;;;28.10;47.50;;;;;;5053662;28;20045;-82
2022/04/18 12:53:15;;;;;;;2.60;1.30;;;27.80;47.00;;;;;;5053651;28;20520;-82
2022/04/18 12:55:41;;;;;;;5.03;1.55;;;27.90;46.50;;;;;;5053562;28;20033;-81
2022/04/18 12:58:20;;;;;;;2.47;1.67;;;27.50;45.00;;;;;;5053220;28;20381;-81
2022/04/18 13:00:50;;;;;;;9.70;1.75;;;27.30;46.00;;;;;;5053578;28;20164;-82
2022/04/18 13:03:17;;;;;;;4.18;1.88;;;28.20;45.30;;;;;;5053416;28;20040;-78
2022/04/18 13:05:49;;;;;;;2.00;1.20;;;28.70;45.90;;;;;;5053497;28;20401;-80
2022/04/18 13:08:17;;;;;;;2.50;1.25;;;28.30;46.40;;;;;;5035514;28;20045;-77
2022/04/18 13:10:44;;;;;;;4.68;1.80;;;28.70;47.00;;;;;;5054050;28;20099;-82
2022/04/18 13:13:15;;;;;;;5.90;1.48;;;29.50;45.40;;;;;;5052989;28;20029;-82
2022/04/18 13:15:42;;;;;;;2.05;1.50;;;30.20;45.40;;;;;;5053368;28;20037;-82
2022/04/18 13:18:10;;;;;;;1.80;1.40;;;30.30;45.90;;;;;;5053404;28;20416;-82
2022/04/18 13:20:38;;;;;;;4.70;1.52;;;30.10;46.00;;;;;;5054679;28;20033;-80
2022/04/18 13:23:04;;;;;;;4.63;1.52;;;29.50;44.70;;;;;;5053132;28;20397;-82
2022/04/18 13:25:31;;;;;;;3.65;1.70;;;30.20;44.40;;;;;;5053159;28;20037;-82
2022/04/18 13:27:57;;;;;;;2.83;1.70;;;30.50;45.20;;;;;;5052996;28;20043;-82
2022/04/18 13:30:24;;;;;;;3.28;1.67;;;31.00;44.60;;;;;;5053045;28;20028;-81
2022/04/18 13:32:51;;;;;;;2.63;1.60;;;31.50;46.40;;;;;;5052928;28;20031;-82
2022/04/18 13:35:18;;;;;;;2.70;1.80;;;31.80;44.30;;;;;;5052976;28;20025;-75
2022/04/18 13:37:45;;;;;;;3.67;1.45;;;30.90;46.20;;;;;;5035139;28;20033;-82